createdAt,value
2018-09-04T00:01:52.641Z,55.43
2018-09-04T00:04:23.048Z,51.33
2018-09-04T00:06:53.104Z,48.40
2018-09-04T00:09:23.688Z,52.90
2018-09-04T00:11:54.496Z,61.23
2018-09-04T00:14:25.297Z,49.00
2018-09-04T00:16:55.314Z,49.87
2018-09-04T00:19:25.350Z,59.50
2018-09-04T00:21:56.378Z,68.00
2018-09-04T00:24:28.079Z,57.37
2018-09-04T00:27:00.131Z,56.60
2018-09-04T00:29:31.283Z,51.50
2018-09-04T00:32:02.726Z,50.63
2018-09-04T00:34:35.213Z,57.30
2018-09-04T00:37:06.641Z,55.70
2018-09-04T00:39:36.751Z,59.40
2018-09-04T00:42:08.762Z,55.00
2018-09-04T00:44:39.690Z,56.60
2018-09-04T00:47:09.753Z,73.70
2018-09-04T00:49:39.552Z,60.77
2018-09-04T00:52:10.220Z,53.50
2018-09-04T00:54:45.780Z,62.07
2018-09-04T00:57:16.018Z,65.03
2018-09-04T00:59:46.929Z,56.23
2018-09-04T01:02:19.109Z,46.00
2018-09-04T01:04:50.458Z,52.90
2018-09-04T01:07:20.634Z,56.63
2018-09-04T01:09:51.193Z,52.37
2018-09-04T01:12:21.638Z,53.70
2018-09-04T01:14:56.372Z,61.77
2018-09-04T01:17:28.047Z,52.77
2018-09-04T01:19:58.369Z,59.97
2018-09-04T01:22:28.374Z,62.27
2018-09-04T01:24:58.225Z,66.53
2018-09-04T01:27:29.252Z,56.57
2018-09-04T01:29:59.772Z,77.67
2018-09-04T01:32:31.987Z,69.87
2018-09-04T01:35:01.941Z,61.70
2018-09-04T01:37:32.102Z,61.20
2018-09-04T01:40:05.000Z,62.83
2018-09-04T01:42:35.922Z,55.67
2018-09-04T01:45:06.884Z,60.03
2018-09-04T01:47:37.112Z,61.83
2018-09-04T01:50:07.260Z,61.63
2018-09-04T01:52:37.598Z,69.57
2018-09-04T01:55:07.975Z,65.63
2018-09-04T01:57:38.844Z,74.10
2018-09-04T02:00:10.392Z,74.03
2018-09-04T02:02:41.162Z,66.80
2018-09-04T02:05:13.516Z,60.27
2018-09-04T02:07:43.438Z,67.73
2018-09-04T02:10:14.515Z,81.03
2018-09-04T02:12:46.913Z,73.53
2018-09-04T02:15:16.784Z,67.50
2018-09-04T02:17:46.726Z,57.73
2018-09-04T02:20:18.861Z,70.07
2018-09-04T02:22:50.727Z,79.07
2018-09-04T02:25:20.562Z,73.67
2018-09-04T02:27:50.996Z,78.80
2018-09-04T02:30:20.823Z,70.40
2018-09-04T02:32:50.804Z,64.80
2018-09-04T02:35:20.665Z,76.70
2018-09-04T02:37:51.145Z,84.93
2018-09-04T02:40:23.065Z,104.00
2018-09-04T02:42:54.920Z,91.20
2018-09-04T02:45:25.953Z,112.97
2018-09-04T02:47:56.460Z,82.33
2018-09-04T02:50:27.653Z,108.60
2018-09-04T02:52:58.723Z,96.83
2018-09-04T02:55:28.724Z,99.57
2018-09-04T02:57:59.928Z,80.60
2018-09-04T03:00:30.873Z,92.63
2018-09-04T03:03:01.675Z,83.30
2018-09-04T03:05:32.501Z,101.50
2018-09-04T03:08:03.863Z,76.57
2018-09-04T03:10:33.813Z,88.57
2018-09-04T03:13:04.596Z,86.90
2018-09-04T03:15:36.932Z,96.30
2018-09-04T03:18:07.009Z,81.23
2018-09-04T03:20:38.195Z,80.33
2018-09-04T03:23:08.765Z,80.93
2018-09-04T03:25:38.849Z,94.23
2018-09-04T03:28:11.400Z,85.13
2018-09-04T03:30:41.372Z,83.87
2018-09-04T03:33:11.348Z,83.77
2018-09-04T03:35:41.293Z,93.47
2018-09-04T03:38:11.695Z,81.17
2018-09-04T03:40:41.542Z,80.87
2018-09-04T03:43:11.527Z,86.10
2018-09-04T03:45:41.918Z,85.53
2018-09-04T03:48:11.795Z,95.07
2018-09-04T03:50:42.004Z,79.70
2018-09-04T03:53:11.892Z,83.90
2018-09-04T03:55:41.896Z,78.10
2018-09-04T03:58:13.632Z,88.80
2018-09-04T04:00:43.590Z,81.33
2018-09-04T04:03:13.667Z,88.83
2018-09-04T04:05:44.650Z,92.10
2018-09-04T04:08:14.686Z,95.53
2018-09-04T04:10:44.716Z,92.27
2018-09-04T04:13:14.718Z,101.23
2018-09-04T04:15:44.689Z,86.43
2018-09-04T04:18:21.523Z,88.47
2018-09-04T04:21:00.571Z,89.73
2018-09-04T04:23:31.581Z,94.33
2018-09-04T04:26:02.952Z,96.73
2018-09-04T04:28:33.427Z,81.00
2018-09-04T04:31:03.788Z,90.33
2018-09-04T04:33:33.707Z,79.90
2018-09-04T04:36:04.610Z,93.23
2018-09-04T04:38:34.761Z,92.90
2018-09-04T04:41:04.646Z,81.07
2018-09-04T04:43:34.446Z,82.80
2018-09-04T04:46:05.399Z,92.30
2018-09-04T04:48:36.329Z,83.53
2018-09-04T04:51:06.537Z,86.47
2018-09-04T04:53:38.812Z,110.33
2018-09-04T04:56:10.017Z,91.27
2018-09-04T04:58:40.051Z,91.10
2018-09-04T05:01:10.407Z,91.57
2018-09-04T05:03:42.407Z,109.37
2018-09-04T05:06:13.658Z,85.77
2018-09-04T05:08:43.683Z,95.93
2018-09-04T05:11:14.997Z,89.00
2018-09-04T05:13:45.812Z,78.30
2018-09-04T05:16:17.104Z,84.20
2018-09-04T05:18:47.625Z,76.57
2018-09-04T05:21:17.687Z,84.70
2018-09-04T05:23:47.846Z,77.63
2018-09-04T05:26:18.840Z,86.27
2018-09-04T05:28:49.030Z,89.90
2018-09-04T05:31:21.453Z,80.50
2018-09-04T05:33:51.775Z,90.60
2018-09-04T05:36:22.495Z,80.27
2018-09-04T05:38:53.768Z,79.80
2018-09-04T05:41:24.766Z,89.27
2018-09-04T05:43:58.229Z,80.50
2018-09-04T05:46:39.480Z,79.03
2018-09-04T05:51:52.330Z,91.07
2018-09-04T05:54:23.679Z,88.53
2018-09-04T05:56:56.975Z,77.03
2018-09-04T05:59:27.250Z,84.37
2018-09-04T06:01:57.165Z,83.90
2018-09-04T06:04:27.312Z,92.57
2018-09-04T06:06:57.177Z,87.17
2018-09-04T06:09:28.207Z,91.97
2018-09-04T06:11:58.100Z,91.20
2018-09-04T06:14:28.121Z,87.67
2018-09-04T06:16:57.967Z,82.60
2018-09-04T06:19:31.006Z,87.10
2018-09-04T06:22:00.972Z,72.07
2018-09-04T06:24:30.900Z,80.47
2018-09-04T06:27:02.007Z,87.23
2018-09-04T06:29:32.319Z,81.70
2018-09-04T06:32:03.279Z,86.47
2018-09-04T06:34:34.914Z,99.77
2018-09-04T06:37:07.072Z,95.00
2018-09-04T06:39:44.207Z,88.27
2018-09-04T06:42:14.290Z,92.63
2018-09-04T06:44:45.116Z,84.27
2018-09-04T06:47:15.383Z,99.23
2018-09-04T06:49:47.152Z,81.67
2018-09-04T06:52:21.779Z,90.60
2018-09-04T06:54:52.304Z,91.23
2018-09-04T06:57:23.106Z,93.23
2018-09-04T06:59:55.230Z,96.33
2018-09-04T07:02:26.828Z,106.80
2018-09-04T07:04:56.912Z,85.20
2018-09-04T07:07:28.679Z,92.53
2018-09-04T07:09:59.190Z,96.40
2018-09-04T07:12:29.868Z,89.33
2018-09-04T07:15:00.241Z,94.00
2018-09-04T07:17:30.244Z,76.00
2018-09-04T07:20:03.180Z,106.70
2018-09-04T07:22:34.424Z,85.07
2018-09-04T07:25:05.416Z,88.50
2018-09-04T07:27:37.708Z,85.87
2018-09-04T07:35:17.519Z,94.47
2018-09-04T07:37:59.416Z,86.00
2018-09-04T07:40:35.220Z,91.87
2018-09-04T07:43:13.074Z,90.47
2018-09-04T07:45:45.433Z,88.33
2018-09-04T07:48:15.420Z,82.43
2018-09-04T07:50:46.518Z,80.13
2018-09-04T07:53:17.531Z,85.17
2018-09-04T07:55:48.690Z,83.67
2018-09-04T07:58:20.359Z,92.27
2018-09-04T08:00:51.822Z,103.53
2018-09-04T08:03:22.228Z,92.23
2018-09-04T08:05:52.513Z,85.40
2018-09-04T08:08:35.116Z,72.10
2018-09-04T08:11:24.545Z,87.10
2018-09-04T08:13:57.629Z,74.87
2018-09-04T08:16:31.475Z,80.03
2018-09-04T08:19:01.654Z,76.50
2018-09-04T08:21:35.832Z,70.87
2018-09-04T08:24:07.876Z,72.30
2018-09-04T08:26:38.256Z,71.13
2018-09-04T08:29:21.707Z,63.17
2018-09-04T08:31:52.372Z,60.40
2018-09-04T08:34:22.746Z,62.70
2018-09-04T08:36:52.816Z,57.00
2018-09-04T08:39:23.798Z,54.57
2018-09-04T08:42:02.946Z,46.03
2018-09-04T08:44:36.176Z,35.57
2018-09-04T08:47:07.108Z,35.43
2018-09-04T08:49:37.476Z,46.63
2018-09-04T08:52:07.566Z,41.27
2018-09-04T08:54:43.949Z,42.63
2018-09-04T08:57:14.287Z,36.50
2018-09-04T08:59:46.156Z,35.83
2018-09-04T09:02:16.466Z,31.90
2018-09-04T09:04:49.822Z,31.50
2018-09-04T09:07:21.095Z,40.30
2018-09-04T09:09:51.229Z,35.17
2018-09-04T09:12:21.455Z,35.43
2018-09-04T09:14:52.872Z,63.97
2018-09-04T09:17:41.603Z,45.10
2018-09-04T09:20:20.462Z,40.43
2018-09-04T09:22:53.298Z,47.27
2018-09-04T09:25:24.327Z,42.57
2018-09-04T09:27:55.938Z,34.13
2018-09-04T09:30:26.736Z,33.90
2018-09-04T09:32:57.233Z,41.23
2018-09-04T09:35:27.616Z,38.83
2018-09-04T09:37:58.632Z,37.57
2018-09-04T09:40:29.959Z,33.20
2018-09-04T09:43:01.776Z,31.70
2018-09-04T09:45:31.961Z,35.63
2018-09-04T09:48:08.748Z,32.40
2018-09-04T09:51:03.085Z,28.63
2018-09-04T09:53:36.181Z,28.73
2018-09-04T09:56:11.971Z,26.80
2018-09-04T09:58:42.233Z,35.20
2018-09-04T10:01:22.798Z,28.87
2018-09-04T10:04:01.807Z,24.93
2018-09-04T10:06:44.786Z,28.10
2018-09-04T10:09:22.306Z,38.73
2018-09-04T10:11:55.188Z,22.20
2018-09-04T10:14:26.692Z,24.00
2018-09-04T10:16:58.303Z,23.87
2018-09-04T10:19:35.020Z,25.03
2018-09-04T10:22:05.285Z,22.40
2018-09-04T10:24:35.876Z,27.27
2018-09-04T10:27:07.589Z,25.20
2018-09-04T10:29:39.531Z,20.70
2018-09-04T10:32:09.727Z,23.53
2018-09-04T10:34:45.729Z,22.00
2018-09-04T10:37:29.111Z,24.00
2018-09-04T10:42:15.288Z,30.23
2018-09-04T10:44:46.823Z,23.20
2018-09-04T10:47:19.672Z,23.33
2018-09-04T10:49:52.926Z,18.70
2018-09-04T10:52:32.436Z,19.00
2018-09-04T10:55:06.603Z,20.13
2018-09-04T10:57:37.675Z,21.33
2018-09-04T11:00:09.656Z,14.27
2018-09-04T11:03:06.426Z,18.10
2018-09-04T11:05:55.310Z,16.33
2018-09-04T11:08:34.884Z,30.60
2018-09-04T11:11:41.537Z,36.00
2018-09-04T11:14:23.667Z,27.53
2018-09-04T11:17:11.854Z,18.33
2018-09-04T11:19:46.078Z,22.30
2018-09-04T11:22:16.962Z,26.83
2018-09-04T11:24:48.579Z,27.00
2018-09-04T11:27:20.679Z,26.50
2018-09-04T11:29:53.003Z,26.57
2018-09-04T11:32:24.118Z,25.87
2018-09-04T11:34:54.861Z,16.87
2018-09-04T11:37:26.113Z,21.67
2018-09-04T11:39:56.817Z,33.03
2018-09-04T11:42:27.839Z,19.03
2018-09-04T11:44:59.166Z,15.47
2018-09-04T11:47:29.402Z,23.47
2018-09-04T11:50:00.157Z,22.37
2018-09-04T11:52:39.361Z,20.30
2018-09-04T11:55:17.632Z,21.93
2018-09-04T11:57:53.224Z,25.90
2018-09-04T12:00:35.520Z,20.33
2018-09-04T12:03:06.793Z,13.87
2018-09-04T12:05:37.455Z,16.33
2018-09-04T12:08:08.642Z,19.40
2018-09-04T12:10:41.786Z,22.27
2018-09-04T12:13:22.254Z,16.33
2018-09-04T12:15:52.433Z,22.37
2018-09-04T12:18:24.985Z,17.20
2018-09-04T12:20:58.259Z,22.57
2018-09-04T12:23:32.211Z,20.00
2018-09-04T12:26:03.781Z,20.00
2018-09-04T12:28:34.370Z,23.63
2018-09-04T12:31:07.006Z,22.10
2018-09-04T12:33:40.521Z,33.53
2018-09-04T12:36:10.629Z,19.27
2018-09-04T12:38:43.685Z,20.13
2018-09-04T12:41:23.821Z,16.63
2018-09-04T12:43:56.644Z,17.33
2018-09-04T12:46:35.591Z,16.90
2018-09-04T12:49:17.191Z,13.30
2018-09-04T12:51:54.369Z,19.00
2018-09-04T12:54:25.492Z,15.20
2018-09-04T12:57:05.652Z,15.63
2018-09-04T12:59:37.551Z,30.67
2018-09-04T13:02:10.428Z,18.60
2018-09-04T13:04:42.042Z,15.37
2018-09-04T13:07:12.968Z,16.70
2018-09-04T13:09:46.911Z,21.83
2018-09-04T13:12:19.132Z,29.40
2018-09-04T13:17:27.100Z,23.90
2018-09-04T13:20:01.441Z,21.43
2018-09-04T13:22:33.747Z,22.90
2018-09-04T13:25:08.189Z,24.77
2018-09-04T13:27:39.053Z,23.73
2018-09-04T13:30:09.317Z,18.90
2018-09-04T13:32:39.782Z,23.13
2018-09-04T13:35:10.938Z,18.00
2018-09-04T13:37:41.367Z,24.07
2018-09-04T13:40:11.692Z,21.73
2018-09-04T13:42:42.816Z,20.80
2018-09-04T13:45:14.619Z,19.17
2018-09-04T13:47:45.899Z,19.00
2018-09-04T13:50:23.241Z,18.50
2018-09-04T13:52:53.933Z,20.30
2018-09-04T13:55:24.257Z,19.73
2018-09-04T13:57:55.875Z,19.73
2018-09-04T14:00:27.064Z,22.30
2018-09-04T14:02:57.983Z,28.70
2018-09-04T14:05:51.677Z,23.90
2018-09-04T14:08:24.360Z,33.10
2018-09-04T14:10:55.709Z,21.83
2018-09-04T14:13:39.128Z,24.80
2018-09-04T14:16:17.744Z,29.50
2018-09-04T14:18:58.225Z,33.77
2018-09-04T14:21:28.809Z,29.90
2018-09-04T14:24:00.595Z,26.07
2018-09-04T14:26:33.240Z,28.27
2018-09-04T14:29:06.957Z,27.43
2018-09-04T14:31:36.599Z,32.27
2018-09-04T14:34:07.579Z,29.30
2018-09-04T14:36:38.675Z,26.70
2018-09-04T14:39:09.085Z,24.10
2018-09-04T14:41:41.537Z,25.10
2018-09-04T14:44:12.935Z,35.63
2018-09-04T14:46:47.551Z,22.67
2018-09-04T14:49:18.337Z,32.63
2018-09-04T14:51:50.584Z,26.70
2018-09-04T14:54:20.721Z,28.60
2018-09-04T14:57:00.455Z,22.27
2018-09-04T15:00:17.048Z,35.83
2018-09-04T15:02:53.621Z,27.50
2018-09-04T15:05:35.365Z,28.83
2018-09-04T15:08:10.638Z,23.03
2018-09-04T15:10:48.402Z,22.33
2018-09-04T15:13:23.306Z,27.53
2018-09-04T15:16:09.211Z,27.77
2018-09-04T15:18:57.194Z,24.83
2018-09-04T15:22:11.784Z,25.40
2018-09-04T15:24:52.090Z,23.10
2018-09-04T15:30:13.035Z,25.00
2018-09-04T15:32:50.911Z,31.83
2018-09-04T15:35:21.815Z,25.87
2018-09-04T15:37:53.037Z,25.40
2018-09-04T15:40:25.769Z,24.77
2018-09-04T15:42:56.741Z,24.20
2018-09-04T15:45:27.752Z,35.47
2018-09-04T15:47:59.054Z,26.30
2018-09-04T15:50:29.278Z,23.77
2018-09-04T15:52:59.883Z,23.13
2018-09-04T15:55:31.976Z,22.90
2018-09-04T15:58:03.510Z,24.27
2018-09-04T16:00:33.695Z,32.73
2018-09-04T16:03:04.274Z,68.27
2018-09-04T16:05:39.864Z,94.97
2018-09-04T16:08:10.430Z,58.50
2018-09-04T16:10:41.781Z,57.90
2018-09-04T16:15:54.588Z,56.00
2018-09-04T16:24:21.469Z,55.37
2018-09-04T16:26:56.613Z,45.40
2018-09-04T16:29:33.725Z,58.53
2018-09-04T16:32:14.374Z,54.47
2018-09-04T16:34:47.818Z,53.60
2018-09-04T16:37:29.450Z,51.80
2018-09-04T16:44:14.035Z,59.77
2018-09-04T16:46:47.737Z,94.43
2018-09-04T16:49:25.865Z,83.80
2018-09-04T16:52:11.380Z,74.77
2018-09-04T16:55:07.094Z,65.83
2018-09-04T16:57:47.305Z,55.87
2018-09-04T17:00:21.209Z,64.90
2018-09-04T17:02:55.056Z,59.07
2018-09-04T17:05:26.690Z,59.83
2018-09-04T17:08:05.652Z,65.40
2018-09-04T17:10:37.619Z,57.40
2018-09-04T17:13:13.155Z,58.07
2018-09-04T17:15:44.278Z,59.97
2018-09-04T17:18:18.920Z,60.67
2018-09-04T17:20:50.795Z,55.67
2018-09-04T17:23:47.581Z,80.50
2018-09-04T17:26:34.981Z,59.33
2018-09-04T17:29:11.567Z,61.10
2018-09-04T17:31:54.093Z,71.63
2018-09-04T17:34:25.857Z,61.87
2018-09-04T17:36:59.810Z,59.87
2018-09-04T17:39:34.281Z,57.73
2018-09-04T17:42:04.954Z,62.43
2018-09-04T17:44:38.413Z,61.13
2018-09-04T17:47:10.979Z,52.57
2018-09-04T17:49:47.348Z,58.17
2018-09-04T17:52:49.404Z,59.53
2018-09-04T17:55:38.691Z,58.23
2018-09-04T17:58:11.613Z,63.13
2018-09-04T18:00:53.261Z,63.13
2018-09-04T18:03:32.924Z,60.93
2018-09-04T18:06:17.463Z,64.60
2018-09-04T18:08:54.704Z,70.23
2018-09-04T18:11:26.098Z,58.53
2018-09-04T18:14:02.699Z,61.33
2018-09-04T18:16:34.468Z,69.23
2018-09-04T18:19:08.563Z,65.93
2018-09-04T18:21:49.598Z,83.30
2018-09-04T18:24:40.248Z,73.33
2018-09-04T18:27:25.793Z,103.97
2018-09-04T18:33:00.110Z,80.13
2018-09-04T18:35:49.798Z,86.60
2018-09-04T18:38:30.110Z,69.63
2018-09-04T18:41:05.339Z,114.63
2018-09-04T18:46:44.947Z,101.38
2018-09-04T18:49:30.160Z,96.20
2018-09-04T18:52:16.424Z,69.80
2018-09-04T18:55:12.688Z,84.87
2018-09-04T18:58:12.085Z,85.10
2018-09-04T19:00:47.422Z,73.47
2018-09-04T19:06:07.236Z,70.40
2018-09-04T19:08:42.454Z,72.73
2018-09-04T19:11:14.720Z,72.30
2018-09-04T19:13:45.100Z,74.60
2018-09-04T19:16:24.911Z,84.70
2018-09-04T19:22:17.412Z,87.83
2018-09-04T19:24:51.298Z,87.87
2018-09-04T19:27:24.477Z,66.67
2018-09-04T19:30:05.636Z,81.03
2018-09-04T19:32:36.972Z,82.67
2018-09-04T19:35:24.598Z,72.80
2018-09-04T19:38:04.493Z,66.80
2018-09-04T19:40:41.624Z,74.77
2018-09-04T19:43:40.609Z,72.40
2018-09-04T19:46:15.602Z,58.97
2018-09-04T19:48:48.728Z,72.90
2018-09-04T19:51:20.860Z,98.37
2018-09-04T19:55:06.639Z,68.30
2018-09-04T19:57:52.046Z,81.60
2018-09-04T20:04:33.358Z,70.43
2018-09-04T20:07:18.298Z,84.23
2018-09-04T20:09:49.851Z,65.80
2018-09-04T20:12:20.137Z,68.53
2018-09-04T20:14:50.971Z,80.23
2018-09-04T20:17:22.978Z,84.37
2018-09-04T20:19:58.839Z,74.60
2018-09-04T20:22:34.461Z,76.60
2018-09-04T20:25:16.195Z,73.23
2018-09-04T20:27:50.307Z,78.00
2018-09-04T20:30:29.885Z,75.30
2018-09-04T20:33:04.315Z,74.93
2018-09-04T20:35:35.919Z,97.97
2018-09-04T20:38:08.305Z,71.77
2018-09-04T20:40:47.705Z,63.90
2018-09-04T20:43:32.030Z,66.90
2018-09-04T20:46:06.460Z,77.20
2018-09-04T20:48:37.745Z,67.83
2018-09-04T20:51:10.829Z,66.33
2018-09-04T20:53:47.295Z,68.23
2018-09-04T20:56:19.895Z,78.00
2018-09-04T20:59:02.515Z,71.13
2018-09-04T21:01:44.944Z,78.63
2018-09-04T21:04:27.241Z,80.37
2018-09-04T21:07:02.567Z,95.43
2018-09-04T21:09:43.864Z,93.97
2018-09-04T21:12:14.462Z,103.87
2018-09-04T21:14:48.584Z,91.73
2018-09-04T21:17:31.850Z,93.03
2018-09-04T21:20:04.408Z,106.00
2018-09-04T21:22:42.217Z,92.90
2018-09-04T21:25:19.555Z,105.60
2018-09-04T21:27:53.509Z,107.10
2018-09-04T21:30:23.984Z,103.47
2018-09-04T21:32:55.555Z,94.83
2018-09-04T21:35:34.150Z,90.67
2018-09-04T21:38:14.899Z,101.50
2018-09-04T21:40:51.591Z,93.50
2018-09-04T21:43:22.130Z,100.20
2018-09-04T21:45:55.090Z,105.00
2018-09-04T21:48:30.022Z,104.67
2018-09-04T21:51:00.729Z,103.90
2018-09-04T21:53:31.281Z,99.00
2018-09-04T21:56:03.250Z,96.77
2018-09-04T21:58:37.532Z,100.87
2018-09-04T22:01:10.923Z,106.00
2018-09-04T22:03:44.534Z,109.40
2018-09-04T22:06:15.771Z,130.10
2018-09-04T22:08:46.296Z,100.73
2018-09-04T22:11:17.939Z,91.90
2018-09-04T22:13:48.648Z,96.73
2018-09-04T22:16:20.911Z,108.03
2018-09-04T22:18:55.079Z,114.10
2018-09-04T22:21:27.947Z,107.10
2018-09-04T22:23:59.774Z,101.03
2018-09-04T22:26:35.718Z,99.97
2018-09-04T22:29:28.554Z,109.50
2018-09-04T22:32:12.310Z,91.30
2018-09-04T22:34:44.577Z,109.47
2018-09-04T22:37:16.461Z,108.70
2018-09-04T22:39:48.914Z,113.33
2018-09-04T22:42:19.708Z,123.40
2018-09-04T22:44:50.868Z,116.20
2018-09-04T22:47:21.694Z,112.50
2018-09-04T22:52:00.159Z,105.27
2018-09-04T22:54:30.445Z,112.07
2018-09-04T22:57:01.048Z,103.60
2018-09-04T22:59:37.794Z,101.57
2018-09-04T23:02:10.544Z,102.40
2018-09-04T23:04:43.258Z,96.83
2018-09-04T23:07:14.321Z,103.73
2018-09-04T23:09:46.333Z,109.40
2018-09-04T23:12:18.453Z,114.93
2018-09-04T23:14:55.466Z,114.80
2018-09-04T23:17:33.442Z,120.73
2018-09-04T23:20:04.738Z,121.03
2018-09-04T23:22:34.836Z,123.97
2018-09-04T23:25:08.054Z,113.07
2018-09-04T23:27:39.862Z,115.33
2018-09-04T23:30:14.128Z,113.33
2018-09-04T23:32:45.592Z,129.03
2018-09-04T23:35:25.777Z,113.93
2018-09-04T23:37:56.797Z,111.40
2018-09-04T23:40:30.708Z,111.30
2018-09-04T23:43:01.933Z,106.23
2018-09-04T23:45:32.227Z,121.97
2018-09-04T23:48:03.199Z,112.90
2018-09-04T23:50:38.253Z,110.00
2018-09-04T23:53:17.003Z,113.97
2018-09-04T23:55:51.614Z,92.60
2018-09-04T23:58:29.663Z,102.33
